Time;durP1;ratioP1;P1;durP2;ratioP2;P2;SDS_P1;SDS_P2;PMS_P1;PMS_P2;Temp;Humidity;BMP_temperature;BMP_pressure;BME280_temperature;BME280_humidity;BME280_pressure;Samples;Min_cycle;Max_cycle;Signal;HPM_P1;HPM_P2
2022/01/06 00:01:25;;;;;;;32.30;29.50;;;;;;;23.49;31.49;94176.38;4913640;28;102867;-54
2022/01/06 00:03:52;;;;;;;31.20;28.50;;;;;;;23.48;31.57;94203.34;4912667;28;102796;-54
2022/01/06 00:06:18;;;;;;;32.47;29.77;;;;;;;23.48;31.49;94200.69;4923709;28;102816;-55
2022/01/06 00:08:44;;;;;;;30.70;28.20;;;;;;;23.48;31.90;94190.03;4931722;28;103876;-54
2022/01/06 00:11:11;;;;;;;35.20;32.10;;;;;;;23.46;31.80;94193.03;4931680;28;103196;-55
2022/01/06 00:16:34;;;;;;;30.00;27.50;;;;;;;23.47;31.84;94162.59;4909121;28;102779;-55
2022/01/06 00:24:22;;;;;;;32.60;29.87;;;;;;;23.46;31.50;94185.03;4911849;28;102853;-54
2022/01/06 00:26:50;;;;;;;30.07;27.47;;;;;;;23.47;31.44;94178.59;4928349;28;102665;-54
2022/01/06 00:29:17;;;;;;;29.40;27.00;;;;;;;23.46;31.36;94182.34;4917667;28;102585;-54
2022/01/06 00:31:43;;;;;;;30.33;27.63;;;;;;;23.45;31.32;94188.81;4924179;28;102755;-55
2022/01/06 00:34:10;;;;;;;31.90;29.20;;;;;;;23.46;31.31;94187.69;4919055;28;102575;-54
2022/01/06 00:36:40;;;;;;;29.50;27.10;;;;;;;23.46;31.19;94187.69;4918763;28;103909;-54
2022/01/06 00:39:07;;;;;;;31.40;28.70;;;;;;;23.46;31.56;94189.56;4926466;28;102788;-54
2022/01/06 00:41:35;;;;;;;32.07;29.17;;;;;;;23.46;31.19;94177.03;4927638;28;102805;-54
2022/01/06 00:44:02;;;;;;;31.23;28.53;;;;;;;23.46;31.63;94185.03;4927436;28;103220;-54
2022/01/06 00:46:28;;;;;;;31.20;28.50;;;;;;;23.47;31.54;94196.47;4926604;28;102971;-54
2022/01/06 00:48:53;;;;;;;31.77;29.13;;;;;;;23.45;31.22;94188.81;4908822;28;102784;-55
2022/01/06 00:51:19;;;;;;;30.57;27.97;;;;;;;23.45;31.58;94204.78;4909180;28;102609;-55
2022/01/06 00:53:45;;;;;;;29.63;27.13;;;;;;;23.45;31.71;94178.13;4926458;28;102945;-55
2022/01/06 00:56:10;;;;;;;30.20;27.60;;;;;;;23.45;31.21;94190.69;4912545;28;104557;-55
2022/01/06 00:58:36;;;;;;;29.47;27.03;;;;;;;23.45;31.56;94202.13;4915663;28;102593;-55
2022/01/06 01:01:02;;;;;;;30.97;28.40;;;;;;;23.44;31.51;94192.56;4916270;28;102877;-55
2022/01/06 01:03:28;;;;;;;32.20;29.60;;;;;;;23.44;31.26;94203.25;4927829;28;103341;-55
2022/01/06 01:05:55;;;;;;;30.60;28.03;;;;;;;23.44;31.45;94197.91;4917457;28;103411;-55
2022/01/06 01:08:22;;;;;;;31.00;28.40;;;;;;;23.45;31.59;94199.47;4909172;28;103031;-55
2022/01/06 01:10:49;;;;;;;31.50;28.80;;;;;;;23.44;31.66;94203.25;4911548;28;102782;-54
2022/01/06 01:13:16;;;;;;;30.53;27.93;;;;;;;23.44;31.30;94213.13;4911857;28;103028;-54
2022/01/06 01:15:51;;;;;;;31.13;28.43;;;;;;;23.42;31.50;94206.22;4944960;28;102753;-54
2022/01/06 01:18:19;;;;;;;32.03;29.23;;;;;;;23.44;31.29;94199.78;4940408;28;103581;-54
2022/01/06 01:20:46;;;;;;;32.70;29.80;;;;;;;23.43;31.46;94215.00;4928162;28;103466;-55
2022/01/06 01:23:12;;;;;;;30.77;28.00;;;;;;;23.44;31.38;94207.78;4915164;28;102690;-55
2022/01/06 01:25:38;;;;;;;30.47;27.97;;;;;;;23.42;31.17;94200.91;4920146;28;102644;-54
2022/01/06 01:28:04;;;;;;;29.67;27.27;;;;;;;23.42;31.26;94208.91;4928421;28;102663;-54
2022/01/06 01:30:38;;;;;;;31.20;28.50;;;;;;;23.41;31.00;94220.66;4929282;28;102886;-54
2022/01/06 01:33:05;;;;;;;31.50;28.90;;;;;;;23.42;31.34;94211.56;4929563;28;103032;-54
2022/01/06 01:35:32;;;;;;;31.10;28.50;;;;;;;23.42;32.22;94197.47;4923961;28;103752;-54
2022/01/06 01:37:59;;;;;;;31.67;28.97;;;;;;;23.42;31.15;94197.47;4932959;28;102768;-54
2022/01/06 01:40:25;;;;;;;33.17;30.33;;;;;;;23.41;30.98;94195.91;4908654;28;102495;-54
2022/01/06 01:42:51;;;;;;;32.27;29.57;;;;;;;23.40;31.74;94189.78;4917395;28;102736;-54
2022/01/06 01:45:17;;;;;;;32.53;29.70;;;;;;;23.40;31.09;94197.00;4927641;28;102732;-54
2022/01/06 01:47:45;;;;;;;31.30;28.77;;;;;;;23.41;31.15;94214.56;4917784;28;102824;-55
2022/01/06 01:50:20;;;;;;;31.53;29.00;;;;;;;23.40;31.04;94195.13;4915249;28;102587;-55
2022/01/06 01:52:54;;;;;;;35.30;32.30;;;;;;;23.41;31.31;94182.56;4912734;28;104384;-55
2022/01/06 01:55:29;;;;;;;35.47;32.47;;;;;;;23.41;31.41;94187.91;4912298;28;102914;-55
2022/01/06 01:57:56;;;;;;;34.43;31.53;;;;;;;23.40;30.94;94181.00;4921035;28;102764;-55
2022/01/06 02:00:28;;;;;;;31.23;28.63;;;;;;;23.40;31.40;94189.00;4926447;28;102711;-55
2022/01/06 02:02:54;;;;;;;33.00;30.30;;;;;;;23.40;31.32;94173.03;4912369;28;103548;-55
2022/01/06 02:05:25;;;;;;;31.43;28.83;;;;;;;23.39;31.24;94185.56;4926203;28;102722;-55
2022/01/06 02:07:51;;;;;;;31.27;28.67;;;;;;;23.39;31.15;94169.56;4907874;28;102671;-55
2022/01/06 02:10:19;;;;;;;32.30;29.60;;;;;;;23.39;30.83;94187.47;4910234;28;102657;-55
2022/01/06 02:12:45;;;;;;;32.93;30.23;;;;;;;23.39;30.91;94174.91;4921094;28;103400;-55
2022/01/06 02:15:11;;;;;;;34.57;31.77;;;;;;;23.38;30.70;94184.00;4916982;28;102831;-55
2022/01/06 02:17:38;;;;;;;35.57;32.67;;;;;;;23.39;31.02;94177.56;4915495;28;103281;-55
2022/01/06 02:20:07;;;;;;;33.10;30.33;;;;;;;23.38;31.12;94185.91;4906883;28;102783;-55
2022/01/06 02:22:33;;;;;;;34.40;31.60;;;;;;;23.37;31.16;94177.13;4923589;28;102689;-55
2022/01/06 02:25:26;;;;;;;32.63;29.93;;;;;;;23.38;31.24;94194.69;4918744;28;103324;-55
2022/01/06 02:27:53;;;;;;;33.40;30.60;;;;;;;23.38;31.16;94185.91;4909989;28;103173;-54
2022/01/06 02:30:21;;;;;;;33.27;30.50;;;;;;;23.39;31.29;94188.25;4909870;28;103412;-54
2022/01/06 02:32:47;;;;;;;32.50;29.80;;;;;;;23.37;30.80;94177.13;4915648;28;102718;-54
2022/01/06 02:35:16;;;;;;;36.67;33.60;;;;;;;23.38;30.88;94183.22;4919302;28;103446;-54
2022/01/06 02:37:42;;;;;;;36.77;33.67;;;;;;;23.36;31.27;94191.56;4901703;28;103039;-54
2022/01/06 02:40:10;;;;;;;37.37;34.20;;;;;;;23.37;31.03;94208.34;4920059;28;103285;-54
2022/01/06 02:42:40;;;;;;;34.70;31.80;;;;;;;23.37;30.90;94219.00;4922056;28;102630;-54
2022/01/06 02:45:06;;;;;;;33.87;31.07;;;;;;;23.36;30.89;94212.88;4906729;28;103245;-54
2022/01/06 02:47:32;;;;;;;36.87;33.83;;;;;;;23.36;30.60;94196.13;4912069;28;102720;-54
2022/01/06 02:49:58;;;;;;;34.90;32.10;;;;;;;23.36;30.66;94214.78;4918228;28;102810;-54
2022/01/06 02:52:23;;;;;;;34.07;31.37;;;;;;;23.36;30.78;94206.78;4916643;28;102787;-54
2022/01/06 02:54:49;;;;;;;34.90;31.80;;;;;;;23.37;30.84;94224.31;4912160;28;103419;-54
2022/01/06 02:57:15;;;;;;;36.83;33.73;;;;;;;23.36;31.05;94233.44;4912770;28;102814;-54
2022/01/06 02:59:40;;;;;;;33.43;30.73;;;;;;;23.36;30.77;94220.09;4912714;28;102901;-54
2022/01/06 03:02:06;;;;;;;33.90;31.00;;;;;;;23.36;30.96;94214.78;4920335;28;102656;-54
2022/01/06 03:04:31;;;;;;;34.60;31.80;;;;;;;23.36;30.99;94212.09;4918496;28;102720;-54
2022/01/06 03:06:57;;;;;;;33.90;31.13;;;;;;;23.36;30.73;94207.56;4911015;28;103034;-54
2022/01/06 03:09:35;;;;;;;33.83;31.03;;;;;;;23.34;30.71;94207.06;4926160;28;102864;-54
2022/01/06 03:12:01;;;;;;;36.13;33.20;;;;;;;23.35;31.17;94211.34;4910350;28;103006;-54
2022/01/06 03:14:26;;;;;;;34.77;31.80;;;;;;;23.36;30.73;94201.44;4936799;28;102717;-54
2022/01/06 03:16:52;;;;;;;34.30;31.43;;;;;;;23.33;30.58;94213.50;4949438;28;103276;-55
2022/01/06 03:19:17;;;;;;;37.80;34.60;;;;;;;23.34;30.87;94208.97;4949127;28;102784;-55
2022/01/06 03:21:43;;;;;;;33.43;30.70;;;;;;;23.34;30.40;94191.09;4949103;28;102778;-55
2022/01/06 03:24:08;;;;;;;36.07;33.17;;;;;;;23.34;30.94;94208.97;4927708;28;102718;-54
2022/01/06 03:26:34;;;;;;;32.97;30.27;;;;;;;23.34;31.05;94208.97;4925496;28;103440;-54
2022/01/06 03:28:59;;;;;;;32.70;29.97;;;;;;;23.34;31.01;94215.06;4910286;28;102685;-54
2022/01/06 03:31:25;;;;;;;33.07;30.30;;;;;;;23.34;30.82;94209.75;4910011;28;104440;-55
2022/01/06 03:33:51;;;;;;;34.30;31.50;;;;;;;23.34;30.41;94198.31;4925576;28;102731;-55
2022/01/06 03:36:17;;;;;;;33.07;30.43;;;;;;;23.35;30.74;94199.88;4921644;28;102667;-55
2022/01/06 03:38:42;;;;;;;34.70;31.90;;;;;;;23.34;30.75;94219.63;4910287;28;102660;-55
2022/01/06 03:41:08;;;;;;;33.27;30.57;;;;;;;23.36;30.76;94220.09;4911059;28;103206;-55
2022/01/06 03:43:33;;;;;;;32.00;29.33;;;;;;;23.36;30.91;94188.13;4910692;28;103320;-55
2022/01/06 03:45:59;;;;;;;32.47;29.87;;;;;;;23.36;30.67;94212.88;4910319;28;102615;-55
2022/01/06 03:48:24;;;;;;;32.00;29.50;;;;;;;23.38;30.29;94220.56;4909788;28;102808;-55
2022/01/06 03:50:50;;;;;;;32.17;29.47;;;;;;;23.37;30.56;94219.00;4927294;28;102932;-55
2022/01/06 03:53:15;;;;;;;30.57;28.07;;;;;;;23.38;30.83;94207.22;4932685;28;102772;-55
2022/01/06 03:55:41;;;;;;;29.67;27.17;;;;;;;23.39;30.57;94219.44;4912304;28;103218;-55
2022/01/06 03:58:10;;;;;;;30.80;28.40;;;;;;;23.39;30.39;94198.91;4919521;28;102781;-55
2022/01/06 04:00:35;;;;;;;30.90;28.40;;;;;;;23.40;30.20;94203.13;4915053;28;102756;-55
2022/01/06 04:03:01;;;;;;;31.77;29.17;;;;;;;23.41;30.75;94219.91;4910615;28;102772;-55
2022/01/06 04:05:26;;;;;;;30.70;28.20;;;;;;;23.40;30.95;94235.09;4917714;28;103093;-55
2022/01/06 04:07:52;;;;;;;31.03;28.43;;;;;;;23.39;30.84;94227.44;4906259;28;102814;-56
2022/01/06 04:10:17;;;;;;;30.13;27.63;;;;;;;23.35;30.79;94221.22;4904777;28;102972;-56
2022/01/06 04:12:43;;;;;;;30.23;27.67;;;;;;;23.32;30.98;94227.16;4905908;28;102896;-56
2022/01/06 04:15:13;;;;;;;28.93;26.53;;;;;;;23.31;31.47;94221.06;4901908;28;102772;-57
2022/01/06 04:17:41;;;;;;;26.60;24.40;;;;;;;23.31;30.83;94222.94;4911999;28;103261;-56
2022/01/06 04:20:07;;;;;;;26.73;24.63;;;;;;;23.30;30.79;94230.16;4912711;28;103285;-55
2022/01/06 04:22:33;;;;;;;26.57;24.37;;;;;;;23.28;31.29;94218.28;4916286;28;102792;-55
2022/01/06 04:24:59;;;;;;;26.63;24.43;;;;;;;23.27;31.18;94232.72;4906450;28;102726;-55
2022/01/06 04:27:24;;;;;;;25.27;23.07;;;;;;;23.27;31.04;94227.38;4915148;28;102891;-54
2022/01/06 04:29:50;;;;;;;23.87;21.87;;;;;;;23.24;30.96;94228.81;4918851;28;103600;-54
2022/01/06 04:32:15;;;;;;;23.90;21.90;;;;;;;23.23;30.96;94232.59;4916667;28;103283;-53
2022/01/06 04:34:41;;;;;;;21.97;20.20;;;;;;;23.23;30.88;94245.91;4907733;28;102933;-53
2022/01/06 04:37:06;;;;;;;21.93;20.13;;;;;;;23.23;30.99;94223.81;4919494;28;102817;-55
2022/01/06 04:39:32;;;;;;;20.47;18.73;;;;;;;23.21;31.33;94258.00;4929863;28;103692;-53
2022/01/06 04:41:57;;;;;;;18.80;16.43;;;;;;;23.20;31.16;94251.13;4908944;28;103338;-55
2022/01/06 04:44:23;;;;;;;18.00;16.17;;;;;;;23.18;31.22;94239.97;4918669;28;102725;-53
2022/01/06 04:46:48;;;;;;;16.90;15.50;;;;;;;23.18;30.70;94259.44;4918062;28;102711;-54
2022/01/06 04:49:14;;;;;;;18.57;16.97;;;;;;;23.19;31.20;94233.56;4901371;28;103497;-54
2022/01/06 04:51:40;;;;;;;19.43;17.83;;;;;;;23.20;31.30;94256.44;4924583;28;103352;-54
2022/01/06 04:54:05;;;;;;;20.10;18.30;;;;;;;23.20;31.47;94272.44;4939015;28;103344;-53
2022/01/06 04:56:37;;;;;;;23.60;21.23;;;;;;;23.18;32.15;94237.31;4938150;28;102685;-58
2022/01/06 04:59:08;;;;;;;19.63;17.97;;;;;;;23.25;31.86;94264.25;4908429;28;102843;-53
2022/01/06 05:01:34;;;;;;;19.90;17.93;;;;;;;23.33;32.22;94272.16;4914428;28;103398;-54
2022/01/06 05:03:59;;;;;;;20.80;19.00;;;;;;;23.39;32.05;94265.53;4912008;28;103273;-54
2022/01/06 05:06:26;;;;;;;24.60;20.97;;;;;;;23.41;32.80;94279.31;4928462;28;103962;-53
2022/01/06 05:08:51;;;;;;;20.00;18.20;;;;;;;23.44;33.27;94259.22;4920743;28;103551;-53
2022/01/06 05:11:17;;;;;;;18.93;17.10;;;;;;;23.42;32.81;94264.09;4904326;28;103500;-53
2022/01/06 05:13:42;;;;;;;18.73;16.77;;;;;;;23.42;32.07;94280.09;4895582;28;103313;-53
2022/01/06 05:16:08;;;;;;;17.73;16.00;;;;;;;23.42;31.81;94272.09;4900238;28;103345;-53
2022/01/06 05:18:35;;;;;;;16.60;15.20;;;;;;;23.38;32.00;94263.19;4908830;28;103315;-54
2022/01/06 05:21:01;;;;;;;14.33;13.03;;;;;;;23.37;31.40;94280.31;4899558;28;103698;-54
2022/01/06 05:23:27;;;;;;;16.13;14.53;;;;;;;23.36;30.81;94260.09;4911986;28;102796;-53
2022/01/06 05:25:52;;;;;;;13.80;12.20;;;;;;;23.36;30.25;94254.75;4906025;28;102765;-58
2022/01/06 05:28:18;;;;;;;14.57;13.37;;;;;;;23.33;31.22;94255.38;4900524;28;102699;-53
2022/01/06 05:30:44;;;;;;;16.13;14.73;;;;;;;23.29;31.64;94265.16;4918856;28;102678;-53
2022/01/06 05:33:10;;;;;;;16.27;14.90;;;;;;;23.24;31.69;94257.34;4917789;28;103312;-53
2022/01/06 05:35:36;;;;;;;15.93;14.53;;;;;;;23.22;31.92;94283.56;4919002;28;102914;-53
2022/01/06 05:38:01;;;;;;;17.47;15.83;;;;;;;23.22;32.37;94275.56;4918856;28;102741;-53
2022/01/06 05:40:27;;;;;;;16.37;14.90;;;;;;;23.21;32.21;94284.66;4918475;28;102762;-53
2022/01/06 05:42:52;;;;;;;17.20;15.80;;;;;;;23.22;33.15;94286.22;4918203;28;102729;-53
2022/01/06 05:45:20;;;;;;;18.80;17.20;;;;;;;23.21;32.64;94266.78;4900731;28;102777;-53
2022/01/06 05:47:45;;;;;;;19.03;16.23;;;;;;;23.20;32.60;94269.78;4918319;28;103512;-53
2022/01/06 05:50:11;;;;;;;16.40;15.10;;;;;;;23.19;32.55;94281.53;4918738;28;103080;-53
2022/01/06 05:52:37;;;;;;;17.60;16.07;;;;;;;23.19;32.40;94278.88;4917793;28;102702;-53
2022/01/06 05:55:03;;;;;;;19.10;17.53;;;;;;;23.20;32.57;94259.91;4917542;28;102727;-53
2022/01/06 05:57:29;;;;;;;16.20;14.87;;;;;;;23.20;32.68;94293.75;4918702;28;103602;-53
2022/01/06 05:59:54;;;;;;;18.27;16.50;;;;;;;23.19;32.41;94260.22;4918515;28;103350;-54
2022/01/06 06:02:20;;;;;;;16.40;14.93;;;;;;;23.18;32.52;94243.47;4918177;28;102762;-53
2022/01/06 06:04:46;;;;;;;16.77;15.37;;;;;;;23.17;32.98;94279.19;4918063;28;102745;-53
2022/01/06 06:07:11;;;;;;;16.37;14.97;;;;;;;23.18;32.41;94287.94;4917257;28;103199;-54
2022/01/06 06:09:37;;;;;;;17.03;15.53;;;;;;;23.18;32.84;94279.94;4917784;28;103053;-54
2022/01/06 06:12:03;;;;;;;17.30;15.60;;;;;;;23.17;32.61;94267.75;4918753;28;103086;-54
2022/01/06 06:14:29;;;;;;;15.90;14.60;;;;;;;23.15;32.65;94260.06;4919235;28;102726;-53
2022/01/06 06:16:54;;;;;;;16.50;15.20;;;;;;;23.15;33.05;94285.94;4935539;28;103169;-54
2022/01/06 06:19:20;;;;;;;15.33;13.83;;;;;;;23.16;32.69;94295.50;4937773;28;102989;-54
2022/01/06 06:21:45;;;;;;;15.63;14.43;;;;;;;23.14;32.74;94284.38;4937447;28;102604;-53
2022/01/06 06:24:10;;;;;;;17.17;15.77;;;;;;;23.14;33.19;94271.06;4937569;28;102769;-53
2022/01/06 06:26:36;;;;;;;14.50;13.30;;;;;;;23.14;32.83;94279.06;4937014;28;103723;-53
2022/01/06 06:29:02;;;;;;;15.27;13.93;;;;;;;23.16;32.90;94298.16;4936905;28;102705;-53
2022/01/06 06:31:29;;;;;;;14.87;13.67;;;;;;;23.17;32.54;94286.38;4936814;28;102788;-53
2022/01/06 06:33:54;;;;;;;16.13;14.77;;;;;;;23.17;32.94;94287.16;4937767;28;102808;-53
2022/01/06 06:36:20;;;;;;;14.40;13.20;;;;;;;23.17;32.83;94289.06;4938016;28;103203;-53
2022/01/06 06:38:45;;;;;;;16.90;15.50;;;;;;;23.17;32.78;94289.84;4936588;28;103268;-53
2022/01/06 06:41:11;;;;;;;15.80;14.50;;;;;;;23.19;32.38;94294.88;4937924;28;102980;-53
2022/01/06 06:43:36;;;;;;;15.17;13.87;;;;;;;23.16;33.03;94298.94;4937783;28;103190;-53
2022/01/06 06:46:02;;;;;;;15.50;14.30;;;;;;;23.18;32.84;94298.59;4937024;28;102937;-53
2022/01/06 06:48:27;;;;;;;16.57;15.10;;;;;;;23.18;32.38;94293.28;4918253;28;105342;-53
2022/01/06 06:50:53;;;;;;;16.20;14.80;;;;;;;23.19;32.75;94297.53;4936809;28;102815;-53
2022/01/06 06:53:18;;;;;;;14.80;13.57;;;;;;;23.19;32.20;94310.84;4936953;28;102997;-53
2022/01/06 06:55:45;;;;;;;16.13;14.73;;;;;;;23.19;32.42;94300.97;4937499;28;103390;-53
2022/01/06 06:58:10;;;;;;;15.00;13.80;;;;;;;23.20;32.83;94304.41;4936794;28;103435;-53
2022/01/06 07:00:36;;;;;;;14.23;13.13;;;;;;;23.21;32.65;94301.44;4935768;28;103304;-54
2022/01/06 07:03:01;;;;;;;14.10;13.00;;;;;;;23.21;32.90;94311.31;4938282;28;103361;-54
2022/01/06 07:05:28;;;;;;;13.40;12.40;;;;;;;23.20;32.56;94299.88;4937361;28;103340;-54
2022/01/06 07:07:53;;;;;;;14.40;13.20;;;;;;;23.22;32.32;94297.66;4936194;28;102835;-54
2022/01/06 07:10:19;;;;;;;14.57;13.47;;;;;;;23.21;32.31;94337.97;4936563;28;103408;-54
2022/01/06 07:12:45;;;;;;;13.60;12.60;;;;;;;23.22;32.22;94304.88;4936619;28;102901;-53
2022/01/06 07:15:13;;;;;;;14.33;13.17;;;;;;;23.22;32.22;94307.53;4931900;28;102834;-54
2022/01/06 07:17:39;;;;;;;13.53;12.40;;;;;;;23.23;32.34;94320.53;4916399;28;102952;-54
2022/01/06 07:20:05;;;;;;;14.03;12.83;;;;;;;23.32;32.40;94313.25;4917376;28;102629;-54
2022/01/06 07:22:31;;;;;;;13.53;12.33;;;;;;;23.52;32.07;94317.03;4916526;28;102717;-54
2022/01/06 07:24:56;;;;;;;13.97;12.80;;;;;;;23.60;31.73;94345.53;4917316;28;102906;-54
2022/01/06 07:27:22;;;;;;;14.97;13.67;;;;;;;23.49;32.01;94336.34;4917738;28;103376;-54
2022/01/06 07:29:48;;;;;;;14.57;13.37;;;;;;;23.42;31.95;94296.09;4917184;28;102780;-54
2022/01/06 07:32:13;;;;;;;15.67;14.40;;;;;;;23.49;31.80;94327.56;4916320;28;102755;-53
2022/01/06 07:34:39;;;;;;;16.77;15.37;;;;;;;23.57;32.04;94345.41;4916572;28;102754;-54
2022/01/06 07:37:05;;;;;;;19.47;17.80;;;;;;;23.66;31.20;94322.91;4917923;28;103048;-54
2022/01/06 07:39:30;;;;;;;19.93;18.33;;;;;;;23.73;31.68;94348.28;4916446;28;103023;-55
2022/01/06 07:41:56;;;;;;;21.70;20.00;;;;;;;23.80;31.18;94329.84;4918741;28;102736;-54
2022/01/06 07:44:22;;;;;;;19.73;18.13;;;;;;;23.84;31.17;94326.19;4919661;28;102779;-54
2022/01/06 07:46:48;;;;;;;20.90;19.17;;;;;;;23.87;31.37;94346.91;4918059;28;102815;-53
2022/01/06 07:49:14;;;;;;;23.10;21.17;;;;;;;23.88;31.13;94335.13;4920186;28;102863;-54
2022/01/06 07:51:40;;;;;;;23.47;21.47;;;;;;;23.87;31.45;94354.13;4921480;28;103199;-54
2022/01/06 07:54:07;;;;;;;25.07;22.93;;;;;;;23.85;31.54;94356.31;4919974;28;102714;-54
2022/01/06 07:56:33;;;;;;;26.07;23.90;;;;;;;23.83;31.25;94348.66;4919611;28;103925;-54
2022/01/06 07:58:59;;;;;;;27.70;25.37;;;;;;;23.82;31.71;94347.09;4920093;28;102751;-54
2022/01/06 08:01:25;;;;;;;31.87;29.17;;;;;;;23.80;31.08;94353.84;4919903;28;102689;-54
2022/01/06 08:03:51;;;;;;;30.77;28.13;;;;;;;23.80;31.47;94359.19;4920425;28;103183;-54
2022/01/06 08:06:17;;;;;;;30.43;28.00;;;;;;;23.79;31.22;94349.63;4919324;28;103296;-53
2022/01/06 08:08:44;;;;;;;34.27;31.57;;;;;;;23.77;31.64;94351.84;4919590;28;102867;-54
2022/01/06 08:11:10;;;;;;;34.63;31.73;;;;;;;23.79;31.57;94360.31;4920190;28;103203;-54
2022/01/06 08:13:35;;;;;;;36.93;33.97;;;;;;;23.78;31.14;94377.41;4920478;28;103233;-54
2022/01/06 08:16:01;;;;;;;34.17;31.37;;;;;;;23.77;31.67;94360.63;4920398;28;104622;-54
2022/01/06 08:18:27;;;;;;;36.17;33.17;;;;;;;23.77;31.72;94349.19;4938941;28;103075;-54
2022/01/06 08:20:53;;;;;;;34.57;31.77;;;;;;;23.77;31.38;94354.50;4940016;28;103126;-54
2022/01/06 08:23:18;;;;;;;34.00;31.10;;;;;;;23.76;31.84;94374.28;4939102;28;103318;-54
2022/01/06 08:25:44;;;;;;;30.03;27.60;;;;;;;23.77;31.20;94359.84;4940049;28;103297;-54
2022/01/06 08:28:10;;;;;;;23.87;21.97;;;;;;;23.86;31.36;94356.00;4938966;28;103404;-55
2022/01/06 08:30:35;;;;;;;23.23;21.30;;;;;;;23.95;31.64;94362.03;4938823;28;102717;-55
2022/01/06 08:33:01;;;;;;;22.70;20.60;;;;;;;24.02;31.70;94356.19;4939722;28;103248;-55
2022/01/06 08:35:27;;;;;;;24.33;22.37;;;;;;;24.04;31.73;94351.31;4938645;28;103303;-55
2022/01/06 08:37:53;;;;;;;24.90;22.90;;;;;;;24.09;32.03;94342.31;4938808;28;102676;-54
2022/01/06 08:40:19;;;;;;;23.63;21.80;;;;;;;24.12;31.57;94360.31;4938593;28;104596;-55
2022/01/06 08:42:46;;;;;;;26.10;23.90;;;;;;;24.11;32.00;94343.53;4940173;28;102739;-54
2022/01/06 08:45:13;;;;;;;26.40;24.30;;;;;;;24.12;32.15;94354.97;4937601;28;102670;-55
2022/01/06 08:47:39;;;;;;;26.07;23.97;;;;;;;24.16;32.16;94361.22;4938562;28;102856;-55
2022/01/06 08:50:06;;;;;;;26.43;24.30;;;;;;;24.16;32.25;94366.56;4938715;28;102827;-55
2022/01/06 08:52:34;;;;;;;26.77;24.67;;;;;;;24.15;32.29;94360.44;4938277;28;102788;-56
2022/01/06 08:55:00;;;;;;;27.60;25.30;;;;;;;24.12;32.05;94353.09;4938743;28;104012;-55
2022/01/06 08:57:26;;;;;;;27.70;25.40;;;;;;;24.11;31.91;94364.09;4939118;28;102928;-55
2022/01/06 08:59:51;;;;;;;26.77;24.53;;;;;;;24.08;32.34;94360.22;4938418;28;103131;-54
2022/01/06 09:02:17;;;;;;;28.00;25.80;;;;;;;24.06;32.25;94359.75;4938299;28;102851;-54
2022/01/06 09:04:42;;;;;;;27.53;25.37;;;;;;;24.05;32.56;94360.09;4938273;28;103533;-54
2022/01/06 09:07:08;;;;;;;29.17;26.87;;;;;;;24.03;32.44;94360.41;4937929;28;102767;-54
2022/01/06 09:09:33;;;;;;;29.70;27.30;;;;;;;24.02;32.09;94353.53;4939371;28;103132;-54
2022/01/06 09:11:59;;;;;;;31.60;28.93;;;;;;;24.02;32.01;94345.53;4937738;28;103413;-53
2022/01/06 09:14:24;;;;;;;31.03;28.43;;;;;;;24.02;32.34;94345.53;4938166;28;103188;-54
2022/01/06 09:16:51;;;;;;;32.63;29.93;;;;;;;24.02;32.01;94353.53;4922127;28;102733;-54
2022/01/06 09:19:16;;;;;;;31.47;28.83;;;;;;;24.03;32.06;94351.63;4918177;28;102736;-54
2022/01/06 09:21:43;;;;;;;32.23;29.50;;;;;;;24.03;32.11;94341.75;4918341;28;102729;-54
2022/01/06 09:24:09;;;;;;;32.77;30.10;;;;;;;24.03;31.84;94330.28;4918498;28;103431;-54
2022/01/06 09:26:36;;;;;;;34.37;31.40;;;;;;;24.01;31.95;94320.69;4919441;28;103511;-54
2022/01/06 09:29:07;;;;;;;30.37;27.97;;;;;;;24.00;32.44;94318.34;4918626;28;103260;-54
2022/01/06 09:31:34;;;;;;;30.10;27.50;;;;;;;24.00;32.60;94321.81;4919088;28;102744;-54
2022/01/06 09:34:01;;;;;;;28.87;26.57;;;;;;;24.01;32.29;94319.91;4917721;28;102832;-54
2022/01/06 09:36:27;;;;;;;28.20;25.83;;;;;;;24.03;32.17;94323.06;4917942;28;102789;-54
2022/01/06 09:38:55;;;;;;;28.90;26.47;;;;;;;24.05;32.45;94323.50;4918661;28;103163;-54
2022/01/06 09:41:22;;;;;;;29.53;27.03;;;;;;;24.06;32.71;94310.94;4917189;28;104579;-54
2022/01/06 09:43:51;;;;;;;28.43;26.13;;;;;;;24.05;32.80;94310.16;4918247;28;102749;-54
2022/01/06 09:46:17;;;;;;;28.37;25.97;;;;;;;24.07;32.46;94302.59;4917893;28;102699;-54
2022/01/06 09:48:43;;;;;;;28.47;26.17;;;;;;;24.10;32.44;94285.16;4918636;28;102652;-54
2022/01/06 09:51:10;;;;;;;29.13;26.67;;;;;;;24.12;32.63;94293.59;4918567;28;102675;-53
2022/01/06 09:53:36;;;;;;;27.23;25.03;;;;;;;24.15;33.13;94304.38;4918671;28;102848;-53
2022/01/06 09:56:01;;;;;;;27.13;24.83;;;;;;;24.17;32.70;94310.19;4918403;28;102815;-53
2022/01/06 09:58:29;;;;;;;27.43;25.23;;;;;;;24.18;32.55;94295.72;4918098;28;102727;-53
2022/01/06 10:00:55;;;;;;;28.30;26.00;;;;;;;24.21;32.34;94303.09;4919343;28;103292;-53
2022/01/06 10:03:31;;;;;;;28.10;25.67;;;;;;;24.20;32.60;94304.19;4917999;28;102707;-54
2022/01/06 10:06:09;;;;;;;27.50;25.20;;;;;;;24.23;32.45;94308.88;4916616;28;102702;-54
2022/01/06 10:08:34;;;;;;;26.53;24.33;;;;;;;24.23;32.58;94300.88;4917125;28;102867;-54
2022/01/06 10:11:11;;;;;;;26.43;24.30;;;;;;;24.24;32.65;94299.75;4918935;28;103319;-54
2022/01/06 10:13:37;;;;;;;27.80;25.40;;;;;;;24.26;32.17;94297.53;4917873;28;103622;-54
2022/01/06 10:16:14;;;;;;;26.17;24.07;;;;;;;24.27;32.09;94315.09;4928815;28;103314;-54
2022/01/06 10:18:41;;;;;;;25.93;23.80;;;;;;;24.28;32.35;94316.66;4937731;28;102882;-55
2022/01/06 10:21:14;;;;;;;26.27;24.13;;;;;;;24.28;32.48;94305.97;4936573;28;102812;-53
2022/01/06 10:23:39;;;;;;;27.90;25.50;;;;;;;24.29;32.50;94296.88;4920125;28;103683;-53
2022/01/06 10:26:13;;;;;;;26.00;23.90;;;;;;;24.30;32.49;94289.66;4937206;28;103152;-53
2022/01/06 10:28:39;;;;;;;27.77;25.47;;;;;;;24.32;31.97;94302.69;4937053;28;102733;-53
2022/01/06 10:31:07;;;;;;;26.93;24.53;;;;;;;24.30;32.59;94306.47;4937246;28;102868;-53
2022/01/06 10:33:36;;;;;;;25.80;23.70;;;;;;;24.32;32.03;94313.34;4936886;28;103585;-53
2022/01/06 10:36:09;;;;;;;26.30;24.10;;;;;;;24.32;32.41;94300.00;4936379;28;102748;-54
2022/01/06 10:38:36;;;;;;;26.37;24.07;;;;;;;24.32;32.31;94300.00;4937408;28;102760;-54
2022/01/06 10:41:15;;;;;;;24.53;22.33;;;;;;;24.33;32.31;94296.22;4936594;28;103344;-54
2022/01/06 10:43:41;;;;;;;25.33;23.27;;;;;;;24.33;32.03;94294.34;4936902;28;102768;-54
2022/01/06 10:46:07;;;;;;;26.53;24.33;;;;;;;24.34;32.33;94292.44;4937211;28;102839;-54
2022/01/06 10:48:34;;;;;;;26.93;24.73;;;;;;;24.34;31.96;94297.78;4936363;28;102911;-54
2022/01/06 10:51:01;;;;;;;26.60;24.47;;;;;;;24.32;32.31;94290.09;4935447;28;103429;-52
2022/01/06 10:53:27;;;;;;;27.33;25.03;;;;;;;24.32;32.10;94290.09;4937144;28;102773;-53
2022/01/06 10:55:53;;;;;;;28.00;25.60;;;;;;;24.32;32.49;94278.66;4936949;28;102994;-53
2022/01/06 10:58:19;;;;;;;27.47;25.17;;;;;;;24.32;32.28;94278.66;4936380;28;102996;-52
2022/01/06 11:00:57;;;;;;;28.43;25.93;;;;;;;24.30;32.13;94287.78;4937611;28;103264;-53
2022/01/06 11:03:32;;;;;;;29.20;26.80;;;;;;;24.29;32.30;94272.88;4936284;28;103005;-53
2022/01/06 11:05:59;;;;;;;30.80;28.30;;;;;;;24.30;32.25;94266.41;4935966;28;102694;-53
2022/01/06 11:08:28;;;;;;;31.00;28.50;;;;;;;24.28;32.52;94281.97;4936711;28;102856;-53
2022/01/06 11:13:45;;;;;;;29.60;27.20;;;;;;;24.28;32.20;94276.63;4934034;28;103200;-54
2022/01/06 11:16:13;;;;;;;30.67;28.13;;;;;;;24.27;32.57;94274.28;4926020;28;103187;-53
2022/01/06 11:18:47;;;;;;;29.67;27.30;;;;;;;24.27;32.69;94264.38;4920483;28;102818;-52